createdAt,value
2022-10-03T00:01:24.858Z,9.83
2022-10-03T00:03:58.629Z,6.73
2022-10-03T00:06:30.882Z,6.30
2022-10-03T00:09:09.431Z,8.70
2022-10-03T00:11:43.284Z,6.83
2022-10-03T00:14:16.543Z,8.60
2022-10-03T00:16:48.425Z,7.97
2022-10-03T00:19:21.820Z,4.70
2022-10-03T00:21:57.369Z,3.87
2022-10-03T00:24:30.644Z,8.10
2022-10-03T00:27:01.060Z,5.00
2022-10-03T00:29:41.737Z,7.27
2022-10-03T00:32:17.919Z,4.50
2022-10-03T00:34:55.563Z,8.80
2022-10-03T00:37:30.829Z,4.60
2022-10-03T00:40:09.564Z,4.10
2022-10-03T00:43:12.832Z,5.87
2022-10-03T00:45:56.482Z,8.60
2022-10-03T00:48:48.532Z,4.03
2022-10-03T00:51:25.502Z,6.27
2022-10-03T00:54:03.162Z,5.07
2022-10-03T00:57:02.992Z,3.97
2022-10-03T00:59:40.215Z,8.53
2022-10-03T01:02:26.740Z,3.90
2022-10-03T01:04:56.883Z,9.67
2022-10-03T01:07:33.607Z,12.40
2022-10-03T01:10:09.563Z,3.63
2022-10-03T01:12:50.586Z,6.43
2022-10-03T01:15:23.919Z,5.70
2022-10-03T01:18:05.837Z,3.37
2022-10-03T01:20:36.214Z,5.10
2022-10-03T01:23:18.886Z,6.30
2022-10-03T01:25:50.315Z,6.30
2022-10-03T01:29:01.611Z,5.60
2022-10-03T01:31:34.233Z,5.90
2022-10-03T01:34:04.737Z,4.43
2022-10-03T01:36:35.882Z,6.43
2022-10-03T01:39:06.695Z,3.90
2022-10-03T01:41:38.773Z,5.43
2022-10-03T01:44:13.958Z,3.63
2022-10-03T01:46:45.223Z,4.47
2022-10-03T01:49:17.042Z,4.13
2022-10-03T01:51:49.289Z,4.67
2022-10-03T01:54:20.054Z,5.27
2022-10-03T01:56:54.584Z,5.87
2022-10-03T01:59:30.236Z,3.20
2022-10-03T02:02:02.735Z,2.90
2022-10-03T02:04:37.230Z,6.30
2022-10-03T02:07:09.129Z,2.50
2022-10-03T02:09:42.114Z,5.43
2022-10-03T02:12:11.558Z,5.40
2022-10-03T02:14:52.997Z,5.60
2022-10-03T02:17:31.939Z,3.67
2022-10-03T02:20:04.264Z,3.43
2022-10-03T02:22:36.502Z,5.43
2022-10-03T02:25:14.362Z,5.10
2022-10-03T02:28:09.484Z,6.63
2022-10-03T02:30:42.328Z,2.60
2022-10-03T02:33:52.344Z,4.80
2022-10-03T02:36:49.729Z,7.87
2022-10-03T02:39:29.036Z,4.40
2022-10-03T02:42:28.867Z,7.20
2022-10-03T02:45:17.091Z,5.70
2022-10-03T02:48:31.336Z,5.13
2022-10-03T02:51:14.931Z,1.90
2022-10-03T02:54:15.488Z,5.00
2022-10-03T02:57:04.852Z,3.50
2022-10-03T02:59:58.375Z,7.60
2022-10-03T03:03:02.737Z,2.57
2022-10-03T03:06:18.281Z,4.57
2022-10-03T03:09:18.024Z,2.30
2022-10-03T03:12:21.916Z,4.90
2022-10-03T03:15:31.759Z,4.40
2022-10-03T03:18:04.212Z,5.10
2022-10-03T03:20:52.399Z,2.83
2022-10-03T03:23:39.049Z,3.20
2022-10-03T03:26:25.262Z,3.03
2022-10-03T03:28:57.072Z,3.50
2022-10-03T03:31:28.892Z,2.80
2022-10-03T03:34:01.333Z,1.90
2022-10-03T03:36:35.112Z,4.47
2022-10-03T03:39:09.819Z,2.07
2022-10-03T03:41:58.924Z,4.93
2022-10-03T03:44:38.573Z,4.90
2022-10-03T03:47:18.396Z,3.50
2022-10-03T03:49:59.224Z,4.53
2022-10-03T03:52:37.936Z,3.47
2022-10-03T03:55:24.138Z,7.90
2022-10-03T03:58:07.055Z,2.80
2022-10-03T04:00:42.641Z,6.03
2022-10-03T04:03:22.355Z,3.30
2022-10-03T04:06:05.969Z,5.03
2022-10-03T04:08:43.370Z,3.03
2022-10-03T04:11:18.844Z,3.87
2022-10-03T04:14:10.365Z,3.00
2022-10-03T04:16:59.066Z,4.60
2022-10-03T04:19:31.956Z,4.13
2022-10-03T04:22:25.424Z,3.03
2022-10-03T04:25:16.083Z,3.73
2022-10-03T04:27:58.827Z,4.00
2022-10-03T04:30:30.907Z,2.70
2022-10-03T04:33:15.129Z,2.60
2022-10-03T04:36:07.324Z,2.00
2022-10-03T04:38:43.091Z,5.07
2022-10-03T04:41:14.259Z,3.43
2022-10-03T04:43:44.420Z,4.30
2022-10-03T04:46:19.818Z,1.93
2022-10-03T04:48:51.812Z,4.00
2022-10-03T04:51:22.165Z,3.00
2022-10-03T04:53:54.268Z,2.03
2022-10-03T04:56:49.647Z,3.27
2022-10-03T04:59:41.224Z,1.87
2022-10-03T05:02:16.871Z,1.50
2022-10-03T05:04:47.102Z,3.00
2022-10-03T05:07:17.358Z,6.40
2022-10-03T05:09:50.149Z,1.90
2022-10-03T05:12:22.956Z,2.37
2022-10-03T05:15:05.705Z,3.47
2022-10-03T05:17:39.979Z,3.93
2022-10-03T05:20:34.998Z,2.33
2022-10-03T05:23:08.008Z,2.17
2022-10-03T05:25:42.329Z,3.13
2022-10-03T05:28:20.420Z,2.20
2022-10-03T05:30:54.323Z,2.70
2022-10-03T05:33:31.169Z,4.10
2022-10-03T05:36:13.592Z,2.70
2022-10-03T05:39:06.649Z,3.27
2022-10-03T05:41:35.733Z,5.20
2022-10-03T05:44:06.535Z,3.53
2022-10-03T05:46:59.550Z,3.03
2022-10-03T05:49:49.948Z,3.80
2022-10-03T05:52:36.651Z,4.50
2022-10-03T05:55:20.122Z,5.70
2022-10-03T05:58:17.750Z,4.20
2022-10-03T06:01:01.179Z,4.03
2022-10-03T06:03:50.296Z,5.70
2022-10-03T06:06:22.656Z,4.20
2022-10-03T06:08:57.368Z,2.90
2022-10-03T06:11:42.908Z,3.20
2022-10-03T06:14:29.409Z,4.10
2022-10-03T06:17:04.267Z,3.83
2022-10-03T06:19:39.532Z,4.63
2022-10-03T06:22:44.392Z,6.33
2022-10-03T06:25:52.111Z,3.57
2022-10-03T06:29:00.269Z,3.40
2022-10-03T06:31:51.636Z,6.40
2022-10-03T06:34:33.744Z,4.67
2022-10-03T06:37:17.841Z,3.03
2022-10-03T06:40:19.457Z,3.53
2022-10-03T06:43:01.200Z,3.47
2022-10-03T06:46:02.828Z,6.53
2022-10-03T06:49:01.548Z,5.33
2022-10-03T06:51:49.483Z,5.17
2022-10-03T06:54:48.477Z,3.30
2022-10-03T06:57:30.128Z,6.50
2022-10-03T07:00:05.713Z,3.10
2022-10-03T07:02:57.203Z,4.10
2022-10-03T07:06:06.085Z,6.20
2022-10-03T07:09:09.269Z,3.33
2022-10-03T07:11:46.758Z,3.80
2022-10-03T07:14:59.873Z,3.70
2022-10-03T07:18:01.153Z,3.37
2022-10-03T07:20:45.681Z,3.83
2022-10-03T07:23:40.236Z,4.70
2022-10-03T07:26:38.016Z,5.67
2022-10-03T07:29:14.871Z,2.43
2022-10-03T07:31:53.576Z,2.90
2022-10-03T07:35:05.993Z,4.60
2022-10-03T07:38:03.414Z,3.13
2022-10-03T07:41:00.657Z,2.67
2022-10-03T07:43:59.040Z,3.70
2022-10-03T07:47:00.292Z,4.73
2022-10-03T07:50:01.594Z,2.47
2022-10-03T07:52:41.080Z,2.43
2022-10-03T07:55:28.596Z,2.60
2022-10-03T07:58:27.376Z,4.30
2022-10-03T08:01:08.936Z,2.27
2022-10-03T08:04:02.802Z,2.43
2022-10-03T08:06:35.470Z,4.57
2022-10-03T08:09:25.673Z,5.13
2022-10-03T08:12:16.570Z,8.67
2022-10-03T08:14:49.920Z,9.80
2022-10-03T08:17:49.812Z,11.13
2022-10-03T08:20:41.419Z,8.57
2022-10-03T08:23:26.267Z,10.03
2022-10-03T08:26:00.089Z,8.50
2022-10-03T08:28:44.626Z,6.90
2022-10-03T08:31:21.079Z,13.40
2022-10-03T08:34:27.824Z,9.00
2022-10-03T08:37:14.735Z,8.17
2022-10-03T08:39:56.408Z,5.00
2022-10-03T08:42:53.276Z,9.73
2022-10-03T08:45:52.057Z,8.10
2022-10-03T08:48:43.541Z,5.83
2022-10-03T08:51:41.959Z,6.97
2022-10-03T08:54:36.955Z,5.90
2022-10-03T08:57:15.508Z,7.33
2022-10-03T09:00:15.827Z,5.13
2022-10-03T09:03:36.597Z,6.80
2022-10-03T09:07:16.486Z,5.40
2022-10-03T09:10:11.845Z,6.90
2022-10-03T09:12:50.141Z,7.43
2022-10-03T09:15:57.103Z,12.63
2022-10-03T09:18:45.000Z,6.73
2022-10-03T09:21:46.849Z,10.90
2022-10-03T09:24:33.963Z,3.50
2022-10-03T09:27:33.529Z,5.53
2022-10-03T09:30:14.775Z,6.80
2022-10-03T09:33:15.575Z,6.83
2022-10-03T09:36:16.926Z,5.07
2022-10-03T09:39:13.772Z,3.07
2022-10-03T09:42:14.417Z,6.40
2022-10-03T09:44:52.131Z,3.77
2022-10-03T09:47:54.124Z,8.00
2022-10-03T09:50:37.229Z,6.20
2022-10-03T09:53:20.423Z,3.97
2022-10-03T09:56:01.686Z,4.30
2022-10-03T09:58:40.145Z,5.83
2022-10-03T10:01:24.090Z,4.40
2022-10-03T10:04:53.274Z,4.53
2022-10-03T10:07:41.165Z,8.97
2022-10-03T10:10:38.824Z,6.13
2022-10-03T10:14:05.802Z,5.57
2022-10-03T10:16:48.579Z,5.90
2022-10-03T10:19:46.181Z,1.80
2022-10-03T10:22:29.315Z,7.40
2022-10-03T10:25:37.616Z,9.10
2022-10-03T10:28:38.156Z,7.00
2022-10-03T10:31:46.408Z,5.90
2022-10-03T10:34:51.229Z,4.53
2022-10-03T10:37:46.024Z,6.23
2022-10-03T10:40:47.179Z,9.97
2022-10-03T10:43:43.518Z,18.80
2022-10-03T10:46:50.794Z,5.20
2022-10-03T10:50:01.192Z,7.37
2022-10-03T10:53:02.884Z,6.10
2022-10-03T10:56:19.090Z,7.17
2022-10-03T10:59:15.802Z,3.07
2022-10-03T11:02:04.683Z,4.43
2022-10-03T11:04:59.680Z,9.17
2022-10-03T11:07:59.354Z,9.07
2022-10-03T11:10:33.513Z,3.20
2022-10-03T11:13:50.058Z,8.60
2022-10-03T11:16:47.367Z,5.03
2022-10-03T11:19:48.726Z,2.67
2022-10-03T11:22:55.742Z,6.20
2022-10-03T11:25:45.638Z,6.20
2022-10-03T11:28:58.533Z,9.60
2022-10-03T11:31:49.969Z,4.00
2022-10-03T11:34:33.888Z,6.13
2022-10-03T11:37:10.338Z,4.83
2022-10-03T11:39:43.336Z,3.50
2022-10-03T11:42:28.612Z,4.47
2022-10-03T11:44:59.918Z,4.90
2022-10-03T11:47:43.719Z,2.23
2022-10-03T11:50:35.078Z,4.00
2022-10-03T11:53:12.198Z,7.80
2022-10-03T11:55:41.285Z,7.53
2022-10-03T11:58:34.641Z,14.30
2022-10-03T12:01:25.945Z,7.30
2022-10-03T12:03:56.459Z,5.10
2022-10-03T12:07:00.103Z,6.00
2022-10-03T12:09:30.801Z,4.83
2022-10-03T12:11:59.912Z,6.23
2022-10-03T12:14:30.514Z,4.97
2022-10-03T12:17:06.997Z,11.40
2022-10-03T12:19:37.938Z,5.50
2022-10-03T12:22:11.850Z,7.60
2022-10-03T12:24:42.223Z,7.70
2022-10-03T12:27:16.244Z,6.30
2022-10-03T12:29:47.813Z,5.53
2022-10-03T12:32:23.539Z,2.67
2022-10-03T12:34:55.126Z,2.23
2022-10-03T12:37:33.507Z,3.57
2022-10-03T12:40:05.997Z,2.27
2022-10-03T12:42:35.948Z,7.53
2022-10-03T12:45:06.232Z,3.10
2022-10-03T12:47:55.333Z,2.73
2022-10-03T12:50:31.781Z,2.00
2022-10-03T12:53:10.117Z,2.47
2022-10-03T12:55:38.220Z,3.33
2022-10-03T12:58:07.296Z,3.60
2022-10-03T13:00:37.826Z,2.33
2022-10-03T13:03:17.860Z,2.93
2022-10-03T13:06:12.005Z,2.80
2022-10-03T13:08:45.647Z,2.83
2022-10-03T13:11:30.597Z,2.37
2022-10-03T13:14:19.322Z,3.13
2022-10-03T13:16:56.041Z,5.17
2022-10-03T13:19:25.156Z,8.47
2022-10-03T13:22:03.511Z,6.70
2022-10-03T13:24:34.397Z,2.40
2022-10-03T13:27:07.677Z,3.17
2022-10-03T13:29:38.967Z,3.30
2022-10-03T13:32:19.914Z,3.33
2022-10-03T13:35:29.285Z,3.10
2022-10-03T13:38:18.573Z,5.33
2022-10-03T13:40:49.622Z,2.53
2022-10-03T13:43:19.559Z,2.53
2022-10-03T13:45:48.981Z,3.97
2022-10-03T13:48:19.569Z,9.40
2022-10-03T13:50:58.315Z,5.43
2022-10-03T13:53:40.884Z,4.77
2022-10-03T13:56:09.838Z,2.37
2022-10-03T13:58:44.288Z,3.70
2022-10-03T14:01:21.939Z,2.60
2022-10-03T14:04:05.607Z,2.57
2022-10-03T14:06:37.717Z,4.97
2022-10-03T14:09:32.940Z,3.67
2022-10-03T14:12:05.447Z,2.60
2022-10-03T14:14:44.120Z,3.80
2022-10-03T14:17:13.795Z,3.20
2022-10-03T14:19:48.800Z,3.60
2022-10-03T14:22:25.343Z,3.00
2022-10-03T14:24:59.462Z,3.37
2022-10-03T14:27:38.463Z,3.10
2022-10-03T14:30:09.996Z,3.07
2022-10-03T14:32:47.626Z,3.13
2022-10-03T14:35:26.518Z,5.43
2022-10-03T14:37:56.459Z,4.50
2022-10-03T14:40:28.144Z,3.40
2022-10-03T14:43:05.046Z,3.63
2022-10-03T14:45:34.863Z,3.47
2022-10-03T14:48:08.157Z,8.30
2022-10-03T14:50:37.304Z,6.37
2022-10-03T14:53:06.874Z,4.77
2022-10-03T14:55:39.216Z,6.33
2022-10-03T14:58:11.080Z,6.83
2022-10-03T15:00:44.009Z,8.27
2022-10-03T15:03:33.394Z,6.73
2022-10-03T15:06:19.546Z,5.20
2022-10-03T15:08:48.776Z,9.27
2022-10-03T15:11:18.041Z,11.83
2022-10-03T15:13:47.598Z,5.43
2022-10-03T15:16:17.519Z,9.90
2022-10-03T15:18:46.964Z,5.70
2022-10-03T15:21:16.660Z,10.30
2022-10-03T15:23:45.324Z,4.37
2022-10-03T15:26:16.335Z,8.50
2022-10-03T15:28:46.105Z,6.10
2022-10-03T15:31:30.410Z,6.80
2022-10-03T15:33:59.064Z,4.20
2022-10-03T15:36:29.056Z,4.70
2022-10-03T15:39:00.394Z,4.90
2022-10-03T15:41:29.357Z,4.83
2022-10-03T15:44:00.665Z,4.23
2022-10-03T15:46:32.885Z,6.70
2022-10-03T15:49:00.926Z,5.17
2022-10-03T15:51:30.160Z,8.77
2022-10-03T15:53:59.694Z,4.57
2022-10-03T15:56:31.389Z,4.70
2022-10-03T15:59:00.349Z,7.10
2022-10-03T16:01:29.083Z,7.53
2022-10-03T16:03:58.297Z,8.53
2022-10-03T16:06:30.148Z,5.87
2022-10-03T16:09:03.098Z,6.00
2022-10-03T16:11:33.825Z,9.60
2022-10-03T16:14:15.337Z,6.57
2022-10-03T16:16:43.733Z,8.07
2022-10-03T16:19:29.133Z,6.70
2022-10-03T16:22:00.159Z,12.70
2022-10-03T16:24:33.266Z,8.37
2022-10-03T16:27:06.471Z,8.43
2022-10-03T16:29:35.572Z,9.27
2022-10-03T16:32:05.506Z,9.97
2022-10-03T16:34:34.368Z,6.83
2022-10-03T16:37:02.106Z,6.57
2022-10-03T16:39:34.357Z,8.03
2022-10-03T16:42:03.280Z,14.53
2022-10-03T16:44:38.536Z,8.83
2022-10-03T16:47:07.317Z,8.77
2022-10-03T16:49:57.626Z,7.30
2022-10-03T16:52:26.663Z,11.00
2022-10-03T16:55:01.451Z,8.57
2022-10-03T16:57:33.712Z,10.80
2022-10-03T17:00:06.227Z,6.90
2022-10-03T17:02:34.272Z,6.40
2022-10-03T17:05:03.948Z,7.87
2022-10-03T17:07:36.392Z,14.57
2022-10-03T17:10:06.045Z,6.10
2022-10-03T17:12:34.937Z,9.60
2022-10-03T17:15:05.359Z,7.77
2022-10-03T17:17:35.852Z,8.30
2022-10-03T17:20:06.947Z,5.93
2022-10-03T17:22:37.250Z,7.17
2022-10-03T17:25:07.052Z,8.30
2022-10-03T17:27:37.868Z,9.43
2022-10-03T17:30:07.263Z,8.63
2022-10-03T17:32:37.303Z,7.30
2022-10-03T17:35:09.035Z,10.63
2022-10-03T17:38:19.649Z,5.77
2022-10-03T17:40:56.365Z,6.50
2022-10-03T17:43:30.849Z,7.30
2022-10-03T17:46:05.525Z,6.93
2022-10-03T17:48:37.879Z,6.40
2022-10-03T17:51:24.081Z,7.03
2022-10-03T17:53:57.371Z,6.40
2022-10-03T17:56:27.244Z,6.50
2022-10-03T17:58:57.595Z,6.87
2022-10-03T18:01:28.245Z,5.67
2022-10-03T18:03:57.085Z,6.83
2022-10-03T18:06:50.067Z,8.20
2022-10-03T18:09:29.383Z,6.03
2022-10-03T18:12:03.163Z,8.00
2022-10-03T18:14:34.845Z,7.00
2022-10-03T18:17:06.964Z,6.40
2022-10-03T18:19:42.701Z,6.80
2022-10-03T18:22:15.624Z,10.57
2022-10-03T18:24:51.343Z,8.07
2022-10-03T18:27:38.230Z,8.20
2022-10-03T18:30:07.045Z,8.00
2022-10-03T18:32:42.071Z,10.80
2022-10-03T18:35:13.016Z,11.70
2022-10-03T18:38:06.564Z,12.00
2022-10-03T18:40:36.122Z,13.60
2022-10-03T18:43:06.642Z,9.83
2022-10-03T18:45:37.958Z,9.17
2022-10-03T18:48:09.041Z,17.53
2022-10-03T18:50:45.153Z,14.00
2022-10-03T18:53:17.496Z,7.13
2022-10-03T18:55:46.343Z,10.47
2022-10-03T18:58:18.857Z,13.20
2022-10-03T19:00:49.607Z,10.60
2022-10-03T19:03:17.643Z,9.70
2022-10-03T19:05:46.906Z,12.87
2022-10-03T19:08:18.902Z,8.93
2022-10-03T19:10:46.590Z,10.20
2022-10-03T19:13:25.013Z,10.77
2022-10-03T19:16:15.084Z,16.20
2022-10-03T19:18:44.129Z,16.87
2022-10-03T19:21:19.414Z,16.83
2022-10-03T19:23:49.559Z,16.10
2022-10-03T19:26:23.937Z,15.40
2022-10-03T19:28:54.816Z,17.67
2022-10-03T19:31:23.767Z,16.67
2022-10-03T19:33:52.743Z,13.57
2022-10-03T19:36:22.764Z,15.27
2022-10-03T19:38:50.744Z,10.53
2022-10-03T19:41:26.086Z,11.43
2022-10-03T19:43:56.050Z,10.70
2022-10-03T19:46:47.963Z,25.70
2022-10-03T19:49:23.881Z,28.73
2022-10-03T19:51:52.127Z,27.00
2022-10-03T19:54:31.270Z,20.83
2022-10-03T19:56:59.444Z,21.07
2022-10-03T19:59:39.256Z,18.97
2022-10-03T20:02:07.861Z,15.80
2022-10-03T20:04:37.292Z,20.53
2022-10-03T20:07:08.151Z,18.10
2022-10-03T20:09:36.572Z,22.23
2022-10-03T20:12:05.270Z,21.03
2022-10-03T20:14:34.597Z,19.60
2022-10-03T20:17:05.471Z,19.90
2022-10-03T20:19:42.424Z,19.83
2022-10-03T20:22:12.889Z,17.23
2022-10-03T20:24:42.465Z,17.47
2022-10-03T20:27:16.745Z,22.33
2022-10-03T20:29:47.225Z,31.90
2022-10-03T20:32:17.155Z,23.60
2022-10-03T20:34:47.247Z,22.17
2022-10-03T20:37:28.798Z,29.17
2022-10-03T20:39:57.570Z,38.70
2022-10-03T20:42:28.796Z,29.70
2022-10-03T20:45:02.486Z,30.90
2022-10-03T20:47:47.711Z,28.23
2022-10-03T20:50:20.566Z,27.83
2022-10-03T20:52:51.315Z,23.73
2022-10-03T20:55:21.043Z,20.90
2022-10-03T20:57:53.090Z,20.60
2022-10-03T21:00:23.617Z,19.80
2022-10-03T21:02:55.880Z,19.30
2022-10-03T21:05:24.893Z,20.10
2022-10-03T21:07:53.717Z,23.60
2022-10-03T21:10:26.627Z,20.17
2022-10-03T21:12:55.619Z,21.30
2022-10-03T21:15:36.312Z,15.77
2022-10-03T21:18:05.778Z,17.20
2022-10-03T21:20:36.866Z,14.10
2022-10-03T21:23:06.754Z,15.90
2022-10-03T21:25:35.997Z,11.10
2022-10-03T21:28:04.063Z,11.50
2022-10-03T21:30:47.569Z,21.70
2022-10-03T21:33:19.377Z,36.57
2022-10-03T21:35:47.369Z,23.97
2022-10-03T21:38:20.477Z,17.17
2022-10-03T21:41:08.160Z,16.07
2022-10-03T21:43:48.783Z,18.57
2022-10-03T21:46:19.919Z,15.00
2022-10-03T21:49:08.981Z,21.00
2022-10-03T21:51:39.996Z,14.70
2022-10-03T21:54:20.960Z,14.80
2022-10-03T21:56:57.540Z,12.03
2022-10-03T21:59:47.773Z,15.10
2022-10-03T22:02:19.103Z,18.60
2022-10-03T22:04:50.609Z,12.43
2022-10-03T22:07:19.693Z,12.83
2022-10-03T22:09:48.619Z,14.23
2022-10-03T22:12:17.378Z,10.93
2022-10-03T22:14:48.280Z,15.77
2022-10-03T22:17:19.576Z,13.23
2022-10-03T22:19:52.674Z,19.53
2022-10-03T22:22:40.813Z,10.17
2022-10-03T22:25:15.477Z,12.63
2022-10-03T22:27:46.109Z,10.73
2022-10-03T22:30:15.076Z,12.67
2022-10-03T22:32:48.089Z,9.70
2022-10-03T22:35:27.869Z,9.73
2022-10-03T22:37:56.137Z,11.77
2022-10-03T22:40:24.282Z,11.13
2022-10-03T22:42:55.416Z,11.67
2022-10-03T22:45:24.449Z,6.70
2022-10-03T22:47:53.852Z,12.30
2022-10-03T22:50:25.225Z,12.30
2022-10-03T22:52:53.490Z,10.80
2022-10-03T22:55:22.701Z,9.00
2022-10-03T22:57:51.085Z,9.77
2022-10-03T23:00:21.452Z,5.03
2022-10-03T23:02:52.556Z,7.77
2022-10-03T23:05:24.516Z,9.20
2022-10-03T23:08:01.588Z,6.80
2022-10-03T23:10:36.465Z,8.27
2022-10-03T23:13:05.969Z,7.50
2022-10-03T23:15:34.275Z,7.10
2022-10-03T23:18:15.106Z,9.00
2022-10-03T23:20:59.438Z,4.43
2022-10-03T23:23:30.653Z,9.13
2022-10-03T23:26:03.567Z,7.90
2022-10-03T23:28:33.851Z,40.00
2022-10-03T23:31:01.869Z,7.40
2022-10-03T23:33:57.368Z,8.03
2022-10-03T23:36:26.643Z,6.03
2022-10-03T23:39:00.056Z,6.40
2022-10-03T23:41:47.214Z,10.03
2022-10-03T23:44:38.745Z,4.63
2022-10-03T23:47:07.297Z,7.20
2022-10-03T23:49:36.141Z,7.67
2022-10-03T23:52:06.044Z,6.03
2022-10-03T23:54:34.496Z,19.23
2022-10-03T23:57:05.551Z,5.87
2022-10-03T23:59:36.153Z,7.73
